Fort Qu'Appelle, Canada
Current Conditions -  °F | °C
As of 11:43 PM on Wednesday 22 Oct 2014 (Local Time) from CYQR Reporting Station
Clear Clear  
Wind Chill: 30°   Ceiling: Unl
Heat Index: 36°   Visibility: 15mi
Dew Point: 34°   Wind: 7mph
Humidity: 93%   Direction: 220°SW
Pressure: 29.77"   Gusts: NA
Location:  50.77°N, 103.78°W
Report Text: CYQR 230543Z 22006KT 15SM SKC 02/01 A2977 RMK SLP100
Loading
Personal Weather Stations






























Interactive Weather Map
Tropical Storm Tracking
New forecast layout! Learn more

10-Day Weather Forecast

Advertisements
Track Severe Weather on mobile